Time;durP1;ratioP1;P1;durP2;ratioP2;P2;SDS_P1;SDS_P2;PMS_P1;PMS_P2;Temp;Humidity;BMP_temperature;BMP_pressure;BME280_temperature;BME280_humidity;BME280_pressure;Samples;Min_cycle;Max_cycle;Signal;HPM_P1;HPM_P2
2022/05/16 00:01:51;;;;;;;4.80;2.30;;;9.30;80.20;;;;;;5055759;28;20199;-86
2022/05/16 00:04:17;;;;;;;3.63;2.33;;;9.20;80.20;;;;;;5038714;28;20302;-86
2022/05/16 00:06:42;;;;;;;5.70;2.33;;;9.20;80.10;;;;;;5055241;28;20180;-88
2022/05/16 00:09:26;;;;;;;5.47;2.10;;;9.20;80.20;;;;;;5056669;28;20176;-86
2022/05/16 00:11:52;;;;;;;4.17;2.20;;;9.20;80.40;;;;;;5056650;28;20195;-85
2022/05/16 00:14:18;;;;;;;5.17;2.20;;;9.10;80.50;;;;;;5057516;28;20597;-87
2022/05/16 00:16:44;;;;;;;4.87;2.33;;;9.10;80.70;;;;;;5056521;28;20178;-88
2022/05/16 00:19:09;;;;;;;4.90;2.10;;;9.10;80.90;;;;;;5037820;28;20642;-87
2022/05/16 00:21:35;;;;;;;4.67;2.13;;;9.10;80.80;;;;;;5038410;28;20572;-88
2022/05/16 00:24:01;;;;;;;8.80;2.43;;;9.20;80.60;;;;;;5055548;28;20207;-87
2022/05/16 00:26:26;;;;;;;5.60;2.40;;;9.20;80.60;;;;;;5037623;28;20654;-88
2022/05/16 00:28:52;;;;;;;3.03;2.03;;;9.10;80.90;;;;;;5055438;28;20168;-87
2022/05/16 00:31:17;;;;;;;4.13;2.03;;;9.00;81.30;;;;;;5037340;28;20188;-88
2022/05/16 00:33:43;;;;;;;3.93;2.17;;;9.00;81.60;;;;;;5038250;28;20653;-87
2022/05/16 00:36:09;;;;;;;6.00;2.10;;;8.90;81.60;;;;;;5056325;28;20168;-87
2022/05/16 00:38:34;;;;;;;8.57;2.50;;;8.90;81.90;;;;;;5055032;28;20180;-88
2022/05/16 00:41:01;;;;;;;3.67;2.30;;;8.90;82.00;;;;;;5038416;28;20316;-89
2022/05/16 00:43:44;;;;;;;4.13;2.00;;;8.90;82.10;;;;;;5038636;28;20208;-88
2022/05/16 00:46:10;;;;;;;5.37;2.30;;;8.90;82.30;;;;;;5055215;28;20597;-88
2022/05/16 00:48:36;;;;;;;4.30;2.07;;;8.80;82.60;;;;;;5056331;28;20654;-88
2022/05/16 00:51:02;;;;;;;3.00;2.03;;;8.80;82.80;;;;;;5038008;28;20212;-88
2022/05/16 00:53:29;;;;;;;5.43;2.33;;;8.80;82.90;;;;;;5037402;28;20566;-88
2022/05/16 00:55:54;;;;;;;2.83;2.20;;;8.70;83.10;;;;;;5054116;28;20191;-87
2022/05/16 00:58:20;;;;;;;7.80;2.90;;;8.70;83.20;;;;;;5037646;28;20176;-87
2022/05/16 01:00:48;;;;;;;8.37;3.00;;;8.60;83.50;;;;;;5054040;28;20200;-88
2022/05/16 01:06:05;;;;;;;4.30;2.47;;;8.70;83.80;;;;;;5055830;28;20167;-88
2022/05/16 01:08:33;;;;;;;5.17;2.60;;;8.70;83.80;;;;;;5037300;28;20207;-87
2022/05/16 01:11:06;;;;;;;5.57;2.33;;;8.70;84.00;;;;;;5053717;28;20199;-87
2022/05/16 01:13:32;;;;;;;5.90;2.97;;;8.70;84.10;;;;;;5055339;28;20171;-87
2022/05/16 01:15:59;;;;;;;6.63;3.17;;;8.70;84.30;;;;;;5038116;28;20180;-88
2022/05/16 01:18:26;;;;;;;5.40;2.67;;;8.70;84.30;;;;;;5037699;28;20234;-88
2022/05/16 01:21:23;;;;;;;4.17;2.30;;;8.80;84.10;;;;;;5037683;28;20234;-88
2022/05/16 01:23:54;;;;;;;6.33;2.97;;;8.80;84.10;;;;;;5055248;28;20253;-88
2022/05/16 01:26:24;;;;;;;7.40;2.63;;;8.80;84.10;;;;;;5056052;28;20253;-87
2022/05/16 01:28:50;;;;;;;6.17;2.90;;;8.80;84.20;;;;;;5054620;28;20179;-88
2022/05/16 01:31:16;;;;;;;5.57;2.47;;;8.80;84.20;;;;;;5054299;28;20200;-88
2022/05/16 01:33:41;;;;;;;5.17;2.70;;;8.80;84.30;;;;;;5037689;28;20556;-88
2022/05/16 01:36:07;;;;;;;11.07;3.37;;;8.90;84.40;;;;;;5055574;28;20233;-89
2022/05/16 01:38:33;;;;;;;6.30;2.53;;;8.90;84.40;;;;;;5037460;28;20182;-87
2022/05/16 01:41:03;;;;;;;3.83;2.60;;;8.90;84.50;;;;;;5037408;28;20249;-88
2022/05/16 01:43:32;;;;;;;6.87;2.67;;;8.90;84.50;;;;;;5037170;28;20207;-88
2022/05/16 01:45:58;;;;;;;9.40;3.17;;;8.90;84.50;;;;;;5037853;28;20176;-87
2022/05/16 01:48:24;;;;;;;8.00;2.93;;;8.90;84.50;;;;;;5054824;28;20657;-88
2022/05/16 01:50:50;;;;;;;4.60;2.63;;;8.90;84.50;;;;;;5036929;28;20227;-89
2022/05/16 01:53:17;;;;;;;9.20;3.20;;;8.90;84.60;;;;;;5054831;28;20238;-88
2022/05/16 01:55:43;;;;;;;6.20;2.90;;;8.80;84.80;;;;;;5036716;28;20183;-88
2022/05/16 01:58:09;;;;;;;8.10;3.20;;;8.90;84.90;;;;;;5036577;28;20180;-88
2022/05/16 02:00:36;;;;;;;5.90;3.20;;;8.80;85.00;;;;;;5054245;28;20196;-87
2022/05/16 02:03:03;;;;;;;8.43;3.20;;;8.80;85.00;;;;;;5037167;28;20176;-87
2022/05/16 02:05:29;;;;;;;5.63;2.80;;;8.80;85.20;;;;;;5037294;28;20211;-88
2022/05/16 02:07:55;;;;;;;11.00;3.60;;;8.80;85.20;;;;;;5054924;28;20176;-88
2022/05/16 02:10:23;;;;;;;6.10;3.17;;;8.80;85.10;;;;;;5037511;28;20199;-87
2022/05/16 02:12:50;;;;;;;7.27;3.70;;;8.80;85.00;;;;;;5037086;28;20548;-87
2022/05/16 02:15:19;;;;;;;6.80;3.30;;;8.90;85.00;;;;;;5037747;28;20176;-88
2022/05/16 02:17:45;;;;;;;6.30;3.00;;;8.90;84.90;;;;;;5036851;28;20208;-87
2022/05/16 02:20:11;;;;;;;10.70;3.57;;;8.80;84.90;;;;;;5036523;28;20200;-89
2022/05/16 02:25:21;;;;;;;8.53;3.20;;;8.80;85.10;;;;;;5058696;28;20218;-88
2022/05/16 02:27:49;;;;;;;7.13;3.00;;;8.80;85.20;;;;;;5040341;28;20167;-88
2022/05/16 02:30:14;;;;;;;6.23;3.07;;;8.80;85.20;;;;;;5039947;28;20286;-88
2022/05/16 02:32:40;;;;;;;9.03;3.73;;;8.80;85.20;;;;;;5040614;28;20215;-88
2022/05/16 02:35:06;;;;;;;13.87;3.90;;;8.80;85.30;;;;;;5058921;28;20168;-87
2022/05/16 02:37:32;;;;;;;7.83;3.73;;;8.70;85.40;;;;;;5058739;28;20176;-88
2022/05/16 02:39:57;;;;;;;5.47;3.50;;;8.70;85.50;;;;;;5057317;28;20245;-88
2022/05/16 02:42:23;;;;;;;6.00;3.23;;;8.70;85.60;;;;;;5040762;28;20176;-87
2022/05/16 02:44:52;;;;;;;7.63;3.50;;;8.60;85.70;;;;;;5040402;28;20207;-89
2022/05/16 02:47:19;;;;;;;7.93;3.07;;;8.60;85.80;;;;;;5040769;28;20202;-87
2022/05/16 02:49:45;;;;;;;8.33;3.27;;;8.60;85.90;;;;;;5056804;28;20168;-87
2022/05/16 02:52:11;;;;;;;6.83;3.00;;;8.60;86.10;;;;;;5057702;28;20172;-87
2022/05/16 02:54:36;;;;;;;10.67;4.00;;;8.60;86.10;;;;;;5040224;28;20180;-87
2022/05/16 02:57:04;;;;;;;11.27;3.20;;;8.60;86.20;;;;;;5039886;28;20203;-87
2022/05/16 02:59:32;;;;;;;5.70;3.40;;;8.60;86.30;;;;;;5040320;28;20198;-87
2022/05/16 03:02:03;;;;;;;7.23;3.40;;;8.50;86.40;;;;;;5056961;28;20225;-87
2022/05/16 03:04:30;;;;;;;6.63;3.60;;;8.50;86.50;;;;;;5040430;28;20204;-87
2022/05/16 03:06:55;;;;;;;12.57;4.07;;;8.50;86.60;;;;;;5058174;28;20218;-87
2022/05/16 03:09:22;;;;;;;8.10;4.10;;;8.50;86.70;;;;;;5040290;28;20172;-88
2022/05/16 03:11:48;;;;;;;8.37;3.50;;;8.50;86.80;;;;;;5057790;28;20195;-86
2022/05/16 03:14:14;;;;;;;6.63;3.70;;;8.50;86.80;;;;;;5055748;28;20202;-87
2022/05/16 03:16:40;;;;;;;7.83;3.27;;;8.50;86.90;;;;;;5039522;28;20639;-87
2022/05/16 03:19:06;;;;;;;11.47;4.03;;;8.50;86.90;;;;;;5057499;28;20183;-87
2022/05/16 03:21:32;;;;;;;6.80;3.63;;;8.50;87.00;;;;;;5039450;28;20200;-87
2022/05/16 03:23:58;;;;;;;5.57;3.30;;;8.50;87.00;;;;;;5039321;28;20208;-87
2022/05/16 03:26:24;;;;;;;9.00;4.33;;;8.50;87.10;;;;;;5039414;28;20183;-88
2022/05/16 03:28:50;;;;;;;9.47;4.03;;;8.40;87.20;;;;;;5039503;28;20176;-87
2022/05/16 03:31:15;;;;;;;12.07;3.73;;;8.50;87.10;;;;;;5039192;28;20281;-87
2022/05/16 03:33:41;;;;;;;41.10;6.77;;;8.60;87.00;;;;;;5057150;28;20211;-87
2022/05/16 03:36:08;;;;;;;14.67;4.23;;;8.70;86.90;;;;;;5056021;28;20230;-87
2022/05/16 03:41:19;;;;;;;34.93;6.43;;;8.70;86.40;;;;;;5057444;28;20199;-87
2022/05/16 03:43:45;;;;;;;40.20;6.03;;;8.70;86.50;;;;;;5039230;28;20570;-87
2022/05/16 03:46:11;;;;;;;20.30;3.97;;;8.60;86.70;;;;;;5039327;28;20180;-88
2022/05/16 03:48:38;;;;;;;22.50;5.07;;;8.60;86.90;;;;;;5039066;28;20184;-87
2022/05/16 03:51:05;;;;;;;21.57;5.23;;;8.60;87.10;;;;;;5038990;28;20214;-87
2022/05/16 03:53:31;;;;;;;17.47;5.00;;;8.60;87.20;;;;;;5039055;28;20179;-87
2022/05/16 03:55:57;;;;;;;6.13;4.03;;;8.60;87.30;;;;;;5056790;28;20164;-88
2022/05/16 03:58:22;;;;;;;8.17;3.87;;;8.60;87.30;;;;;;5039149;28;20179;-88
2022/05/16 04:00:48;;;;;;;22.70;5.73;;;8.80;87.30;;;;;;5039009;28;20241;-87
2022/05/16 04:03:15;;;;;;;21.20;5.00;;;8.90;87.20;;;;;;5055669;28;20572;-87
2022/05/16 04:05:41;;;;;;;27.50;5.93;;;8.90;87.10;;;;;;5038780;28;20657;-88
2022/05/16 04:08:07;;;;;;;27.53;5.93;;;9.00;87.00;;;;;;5056513;28;20229;-87
2022/05/16 04:10:33;;;;;;;27.13;6.83;;;9.10;86.90;;;;;;5038864;28;20283;-87
2022/05/16 04:12:58;;;;;;;26.73;7.00;;;9.20;86.90;;;;;;5040158;28;20204;-87
2022/05/16 04:15:25;;;;;;;26.27;5.83;;;9.20;86.90;;;;;;5039774;28;20591;-88
2022/05/16 04:17:51;;;;;;;10.90;4.23;;;9.30;86.90;;;;;;5057949;28;20264;-88
2022/05/16 04:20:19;;;;;;;30.63;6.47;;;9.40;86.90;;;;;;5057930;28;20563;-88
2022/05/16 04:22:44;;;;;;;18.57;4.50;;;9.50;86.80;;;;;;5039328;28;20245;-88
2022/05/16 04:25:13;;;;;;;13.43;4.50;;;9.60;86.70;;;;;;5038564;28;20236;-87
2022/05/16 04:27:38;;;;;;;9.57;4.03;;;9.70;86.50;;;;;;5038636;28;20189;-87
2022/05/16 04:30:05;;;;;;;11.00;4.17;;;9.70;86.30;;;;;;5038505;28;20192;-87
2022/05/16 04:32:30;;;;;;;9.20;3.80;;;9.80;86.20;;;;;;5038734;28;20202;-88
2022/05/16 04:34:56;;;;;;;8.23;3.70;;;9.80;86.00;;;;;;5038501;28;20278;-87
2022/05/16 04:37:21;;;;;;;11.90;4.47;;;9.90;86.00;;;;;;5038906;28;20178;-87
2022/05/16 04:39:47;;;;;;;9.57;4.30;;;10.00;85.80;;;;;;5038266;28;20184;-88
2022/05/16 04:44:56;;;;;;;9.67;3.90;;;10.30;85.50;;;;;;5056592;28;20242;-88
2022/05/16 04:47:22;;;;;;;13.30;3.47;;;10.30;85.10;;;;;;5037892;28;20637;-87
2022/05/16 04:49:48;;;;;;;11.83;3.80;;;10.40;84.90;;;;;;5038258;28;20211;-88
2022/05/16 04:52:14;;;;;;;10.37;3.93;;;10.50;84.60;;;;;;5038227;28;20199;-87
2022/05/16 04:54:40;;;;;;;7.93;3.73;;;10.60;84.40;;;;;;5054949;28;20180;-88
2022/05/16 04:57:06;;;;;;;8.27;4.03;;;10.70;84.20;;;;;;5038181;28;20179;-87
2022/05/16 04:59:32;;;;;;;11.97;3.43;;;10.80;83.70;;;;;;5038207;28;20229;-88
2022/05/16 05:01:58;;;;;;;11.50;3.80;;;10.90;83.40;;;;;;5038069;28;20528;-87
2022/05/16 05:04:24;;;;;;;6.50;3.50;;;11.10;82.90;;;;;;5038029;28;20208;-87
2022/05/16 05:06:50;;;;;;;11.40;3.63;;;11.20;82.80;;;;;;5038149;28;20183;-88
2022/05/16 05:09:16;;;;;;;9.27;3.57;;;11.20;82.40;;;;;;5055685;28;20183;-87
2022/05/16 05:14:34;;;;;;;10.53;3.50;;;11.50;82.50;;;;;;5055928;28;20210;-87
2022/05/16 05:17:06;;;;;;;6.83;3.30;;;11.60;82.20;;;;;;5056068;28;20188;-88
2022/05/16 05:19:32;;;;;;;13.43;3.97;;;11.70;81.50;;;;;;5038213;28;20196;-87
2022/05/16 05:21:58;;;;;;;8.10;3.33;;;11.90;81.20;;;;;;5055373;28;20251;-87
2022/05/16 05:24:24;;;;;;;10.63;3.37;;;12.10;80.80;;;;;;5037286;28;20239;-87
2022/05/16 05:26:50;;;;;;;7.97;3.37;;;12.20;79.70;;;;;;5038070;28;20179;-87
2022/05/16 05:29:16;;;;;;;15.07;3.93;;;12.30;80.00;;;;;;5037846;28;20271;-87
2022/05/16 05:31:42;;;;;;;10.80;3.27;;;12.40;79.20;;;;;;5037147;28;20613;-86
2022/05/16 05:34:08;;;;;;;9.37;2.97;;;12.50;77.50;;;;;;5037518;28;20275;-87
2022/05/16 05:36:34;;;;;;;8.17;3.37;;;12.70;77.00;;;;;;5055968;28;20200;-86
2022/05/16 05:39:01;;;;;;;12.13;3.67;;;12.80;77.10;;;;;;5038643;28;20642;-89
2022/05/16 05:41:27;;;;;;;10.37;4.33;;;12.90;76.90;;;;;;5056495;28;20217;-88
2022/05/16 05:43:53;;;;;;;7.97;2.87;;;13.00;76.70;;;;;;5038564;28;20195;-88
2022/05/16 05:46:19;;;;;;;9.77;3.10;;;13.10;76.40;;;;;;5038067;28;20207;-88
2022/05/16 05:48:45;;;;;;;9.13;3.23;;;13.20;75.50;;;;;;5055852;28;20172;-88
2022/05/16 05:51:12;;;;;;;6.93;3.00;;;13.30;74.90;;;;;;5055291;28;20208;-88
2022/05/16 05:53:37;;;;;;;9.37;3.20;;;13.40;75.20;;;;;;5055209;28;20521;-88
2022/05/16 05:56:05;;;;;;;8.90;2.93;;;13.50;74.40;;;;;;5037160;28;20176;-88
2022/05/16 05:58:32;;;;;;;10.23;2.93;;;13.70;74.50;;;;;;5036295;28;20266;-87
2022/05/16 06:00:58;;;;;;;8.20;2.90;;;13.70;74.40;;;;;;5036677;28;20210;-88
2022/05/16 06:03:24;;;;;;;8.37;3.13;;;13.80;73.80;;;;;;5037158;28;20180;-87
2022/05/16 06:05:50;;;;;;;8.13;2.97;;;13.80;72.20;;;;;;5037613;28;20183;-89
2022/05/16 06:08:15;;;;;;;7.83;2.60;;;14.00;73.10;;;;;;5037606;28;20194;-88
2022/05/16 06:10:41;;;;;;;8.60;2.97;;;14.00;72.20;;;;;;5039354;28;20192;-87
2022/05/16 06:13:06;;;;;;;7.63;3.63;;;14.10;71.60;;;;;;5037417;28;20196;-87
2022/05/16 06:15:32;;;;;;;9.23;2.93;;;14.20;71.30;;;;;;5055116;28;20176;-88
2022/05/16 06:17:58;;;;;;;9.40;3.40;;;14.20;72.10;;;;;;5037298;28;20179;-88
2022/05/16 06:20:24;;;;;;;6.00;3.23;;;14.30;72.90;;;;;;5037237;28;20203;-88
2022/05/16 06:22:49;;;;;;;8.10;2.60;;;14.40;72.10;;;;;;5037383;28;20182;-88
2022/05/16 06:28:12;;;;;;;9.57;3.20;;;14.70;71.90;;;;;;5055319;28;20183;-88
2022/05/16 06:30:43;;;;;;;8.97;2.90;;;14.80;69.90;;;;;;5037011;28;20203;-88
2022/05/16 06:33:10;;;;;;;5.67;2.80;;;14.80;69.70;;;;;;5054893;28;20164;-88
2022/05/16 06:35:36;;;;;;;8.23;3.20;;;14.90;69.20;;;;;;5036775;28;20257;-87
2022/05/16 06:38:17;;;;;;;7.50;3.03;;;14.90;68.60;;;;;;5036541;28;20624;-88
2022/05/16 06:40:48;;;;;;;9.80;2.70;;;15.10;69.10;;;;;;5037299;28;20206;-87
2022/05/16 06:43:14;;;;;;;6.67;2.90;;;15.20;70.20;;;;;;5036784;28;20251;-87
2022/05/16 06:45:41;;;;;;;9.93;3.30;;;15.30;68.70;;;;;;5036469;28;20294;-88
2022/05/16 06:48:07;;;;;;;9.83;3.13;;;15.30;67.50;;;;;;5036751;28;20183;-88
2022/05/16 06:50:34;;;;;;;8.30;2.50;;;15.50;67.40;;;;;;5036475;28;20261;-88
2022/05/16 06:53:00;;;;;;;9.17;2.67;;;15.60;68.20;;;;;;5054474;28;20168;-88
2022/05/16 06:55:26;;;;;;;5.30;2.43;;;15.60;66.80;;;;;;5054528;28;20191;-87
2022/05/16 06:57:52;;;;;;;8.63;2.80;;;15.70;67.10;;;;;;5054895;28;20176;-88
2022/05/16 07:00:19;;;;;;;8.90;2.60;;;15.80;67.10;;;;;;5036315;28;20685;-87
2022/05/16 07:02:45;;;;;;;7.23;2.43;;;15.90;66.00;;;;;;5036215;28;20617;-88
2022/05/16 07:05:11;;;;;;;9.67;2.97;;;16.10;66.50;;;;;;5036693;28;20212;-88
2022/05/16 07:07:36;;;;;;;6.63;2.65;;;16.30;66.20;;;;;;5036515;28;20230;-88
2022/05/16 07:10:03;;;;;;;9.00;2.60;;;16.40;65.50;;;;;;5038900;28;20196;-87
2022/05/16 07:12:29;;;;;;;9.40;3.25;;;16.70;64.90;;;;;;5040281;28;20521;-88
2022/05/16 07:14:54;;;;;;;9.30;2.53;;;16.70;64.00;;;;;;5039986;28;20183;-88
2022/05/16 07:17:20;;;;;;;6.82;2.08;;;16.70;62.60;;;;;;5040067;28;20227;-87
2022/05/16 07:19:47;;;;;;;5.28;2.30;;;16.70;63.60;;;;;;5057254;28;20184;-88
2022/05/16 07:22:22;;;;;;;4.93;2.47;;;16.80;64.80;;;;;;5040578;28;20182;-88
2022/05/16 07:24:50;;;;;;;7.57;2.60;;;16.70;63.70;;;;;;5039884;28;20195;-88
2022/05/16 07:30:00;;;;;;;8.93;2.88;;;16.70;63.90;;;;;;5058585;28;20242;-88
2022/05/16 07:32:41;;;;;;;10.32;2.72;;;16.70;63.50;;;;;;5039678;28;20176;-88
2022/05/16 07:35:09;;;;;;;7.97;2.45;;;16.80;63.60;;;;;;5055899;28;20621;-87
2022/05/16 07:37:34;;;;;;;6.80;2.33;;;16.90;64.10;;;;;;5061231;28;20168;-88
2022/05/16 07:40:00;;;;;;;5.95;2.13;;;17.00;63.60;;;;;;5057421;28;20211;-89
2022/05/16 07:42:26;;;;;;;8.75;2.60;;;17.20;63.10;;;;;;5041838;28;20275;-87
2022/05/16 07:44:51;;;;;;;6.75;2.40;;;17.30;63.50;;;;;;5040377;28;20204;-85
2022/05/16 07:47:17;;;;;;;12.77;3.25;;;17.40;62.60;;;;;;5038572;28;20164;-88
2022/05/16 07:49:43;;;;;;;8.68;2.65;;;17.40;61.00;;;;;;5038721;28;20226;-88
2022/05/16 07:52:09;;;;;;;8.60;2.75;;;17.40;62.10;;;;;;5041313;28;20187;-88
2022/05/16 07:54:37;;;;;;;9.50;2.40;;;17.40;61.80;;;;;;5039837;28;20560;-88
2022/05/16 07:57:04;;;;;;;8.80;2.67;;;17.50;62.10;;;;;;5056466;28;20183;-88
2022/05/16 07:59:30;;;;;;;7.50;2.40;;;17.70;63.00;;;;;;5038966;28;20176;-88
2022/05/16 08:01:55;;;;;;;7.97;2.60;;;17.80;60.60;;;;;;5038652;28;20203;-88
2022/05/16 08:04:21;;;;;;;4.97;2.30;;;17.90;61.20;;;;;;5038466;28;20208;-88
2022/05/16 08:06:47;;;;;;;11.02;2.53;;;18.00;59.30;;;;;;5055695;28;20175;-88
2022/05/16 08:11:57;;;;;;;6.60;2.50;;;18.30;60.20;;;;;;5056299;28;20199;-87
2022/05/16 08:14:22;;;;;;;9.52;2.95;;;18.40;60.50;;;;;;5039210;28;20168;-88
2022/05/16 08:16:48;;;;;;;4.82;2.75;;;18.60;59.40;;;;;;5055824;28;20634;-88
2022/05/16 08:19:13;;;;;;;12.02;3.63;;;18.70;61.60;;;;;;5037543;28;20183;-86
2022/05/16 08:21:41;;;;;;;7.70;2.60;;;18.70;58.90;;;;;;5054514;28;20230;-88
2022/05/16 08:24:09;;;;;;;8.15;2.28;;;18.70;59.70;;;;;;5037847;28;20203;-87
2022/05/16 08:26:35;;;;;;;11.52;2.60;;;19.00;60.10;;;;;;5055604;28;20610;-86
2022/05/16 08:29:02;;;;;;;7.43;2.25;;;19.20;58.60;;;;;;5055589;28;20263;-86
2022/05/16 08:31:28;;;;;;;3.65;1.85;;;19.20;58.70;;;;;;5037758;28;20192;-86
2022/05/16 08:33:55;;;;;;;5.90;2.05;;;19.30;55.10;;;;;;5037563;28;20187;-86
2022/05/16 08:41:53;;;;;;;6.68;2.55;;;19.30;56.10;;;;;;5055681;28;20261;-87
2022/05/16 08:44:21;;;;;;;5.53;2.47;;;19.40;56.70;;;;;;5037054;28;20204;-86
2022/05/16 08:46:55;;;;;;;7.05;2.10;;;19.40;57.00;;;;;;5053609;28;20692;-86
2022/05/16 08:49:28;;;;;;;6.20;3.13;;;19.40;56.50;;;;;;5037181;28;20179;-87
2022/05/16 08:52:25;;;;;;;8.75;2.50;;;19.60;56.50;;;;;;5053736;28;20211;-87
2022/05/16 08:55:02;;;;;;;4.72;2.15;;;19.70;55.80;;;;;;5024634;28;20233;-86
2022/05/16 08:57:35;;;;;;;5.63;2.35;;;19.70;56.10;;;;;;5037071;28;20552;-87
2022/05/16 09:00:11;;;;;;;5.22;2.63;;;19.60;56.50;;;;;;5054704;28;20199;-87
2022/05/16 09:02:40;;;;;;;8.77;2.50;;;19.80;55.60;;;;;;5037402;28;20164;-87
2022/05/16 09:05:20;;;;;;;7.47;2.83;;;19.70;54.70;;;;;;5036813;28;20204;-86
2022/05/16 09:07:52;;;;;;;5.85;2.33;;;19.90;57.00;;;;;;5053675;28;20179;-87
2022/05/16 09:10:23;;;;;;;4.75;2.25;;;20.00;54.90;;;;;;5054124;28;20614;-87
2022/05/16 09:13:00;;;;;;;4.68;1.98;;;20.00;53.70;;;;;;5037811;28;20551;-86
2022/05/16 09:15:51;;;;;;;4.55;2.20;;;20.10;55.00;;;;;;5054178;28;20178;-86
2022/05/16 09:18:32;;;;;;;5.82;2.13;;;20.20;53.30;;;;;;5037047;28;20172;-86
2022/05/16 09:21:40;;;;;;;10.38;2.65;;;20.30;52.30;;;;;;5054010;28;20743;-86
2022/05/16 09:24:11;;;;;;;8.90;2.00;;;20.40;51.90;;;;;;4977670;28;20248;-85
2022/05/16 09:26:54;;;;;;;5.57;2.60;;;20.60;52.80;;;;;;5044719;28;20187;-87
2022/05/16 09:29:24;;;;;;;5.50;2.10;;;20.70;51.30;;;;;;5038766;28;20187;-86
2022/05/16 09:31:59;;;;;;;7.40;2.33;;;20.70;52.00;;;;;;5054725;28;20191;-85
2022/05/16 09:34:25;;;;;;;6.00;2.40;;;20.70;52.10;;;;;;5037154;28;20187;-86
2022/05/16 09:36:50;;;;;;;3.30;1.88;;;20.70;52.00;;;;;;5037097;28;20187;-87
2022/05/16 09:39:24;;;;;;;4.88;1.90;;;21.00;53.30;;;;;;5037377;28;20175;-90
2022/05/16 09:42:02;;;;;;;3.97;2.05;;;20.90;52.80;;;;;;5037174;28;20196;-86
2022/05/16 09:44:31;;;;;;;3.65;1.95;;;20.70;52.20;;;;;;5037752;28;20195;-86
2022/05/16 09:47:19;;;;;;;3.55;2.03;;;20.80;52.80;;;;;;5053841;28;20184;-87
2022/05/16 09:50:03;;;;;;;4.57;1.95;;;20.90;51.80;;;;;;5053048;28;20167;-87
2022/05/16 09:52:48;;;;;;;6.43;2.00;;;21.10;51.80;;;;;;5037388;28;20570;-86
2022/05/16 09:55:26;;;;;;;4.45;2.17;;;21.20;52.00;;;;;;5038145;28;20229;-86
2022/05/16 09:57:59;;;;;;;6.35;2.30;;;21.30;50.40;;;;;;5035819;28;20195;-87
2022/05/16 10:00:31;;;;;;;8.20;2.80;;;21.60;49.00;;;;;;5035903;28;20634;-87
2022/05/16 10:03:23;;;;;;;6.40;2.25;;;21.50;51.30;;;;;;5035973;28;20285;-87
2022/05/16 10:05:51;;;;;;;7.00;2.22;;;21.70;50.00;;;;;;5009745;28;20641;-87
2022/05/16 10:08:37;;;;;;;5.13;1.85;;;21.70;50.50;;;;;;5035703;28;20533;-87
2022/05/16 10:11:12;;;;;;;4.55;2.05;;;22.10;49.70;;;;;;5052831;28;20230;-87
2022/05/16 10:13:39;;;;;;;5.68;1.98;;;22.20;49.50;;;;;;5053579;28;20164;-87
2022/05/16 10:16:07;;;;;;;6.05;2.45;;;22.30;47.90;;;;;;5053263;28;20179;-87
2022/05/16 10:18:40;;;;;;;5.80;2.25;;;22.30;47.40;;;;;;5035561;28;20172;-87
2022/05/16 10:21:14;;;;;;;2.60;1.55;;;22.30;47.60;;;;;;5035681;28;20207;-87
2022/05/16 10:23:44;;;;;;;6.07;2.47;;;22.00;44.80;;;;;;5052256;28;20175;-87
2022/05/16 10:26:14;;;;;;;5.95;2.47;;;21.70;45.90;;;;;;5035652;28;20168;-86
2022/05/16 10:28:46;;;;;;;6.32;1.90;;;21.60;47.30;;;;;;5036226;28;20164;-89
2022/05/16 10:34:08;;;;;;;3.67;1.90;;;22.10;45.50;;;;;;5053749;28;20575;-87
2022/05/16 10:36:35;;;;;;;13.25;2.65;;;22.40;48.10;;;;;;5053628;28;20590;-87
2022/05/16 10:39:04;;;;;;;5.95;2.15;;;22.60;47.00;;;;;;5052246;28;20183;-87
2022/05/16 10:41:35;;;;;;;4.47;1.90;;;22.80;45.30;;;;;;5035773;28;20677;-87
2022/05/16 10:44:24;;;;;;;7.15;1.83;;;22.90;45.00;;;;;;5053877;28;20202;-87
2022/05/16 10:47:07;;;;;;;7.57;2.25;;;22.90;45.60;;;;;;5057267;28;20290;-87
2022/05/16 10:49:52;;;;;;;9.02;2.45;;;22.90;45.30;;;;;;5039680;28;20180;-89
2022/05/16 10:52:38;;;;;;;5.05;1.92;;;23.10;45.50;;;;;;5039094;28;20737;-88
2022/05/16 10:55:04;;;;;;;6.85;2.00;;;23.00;45.10;;;;;;5056913;28;20164;-88
2022/05/16 10:57:52;;;;;;;4.60;1.90;;;22.90;45.60;;;;;;5055864;28;20301;-88
2022/05/16 11:00:20;;;;;;;4.40;2.20;;;22.80;44.10;;;;;;5039118;28;20192;-88
2022/05/16 11:03:22;;;;;;;5.03;2.10;;;22.80;46.20;;;;;;5056851;28;20169;-88
2022/05/16 11:05:59;;;;;;;10.90;2.50;;;23.00;46.20;;;;;;5055513;28;20278;-88
2022/05/16 11:08:47;;;;;;;5.90;1.98;;;23.20;44.60;;;;;;5056441;28;20164;-89
2022/05/16 11:11:29;;;;;;;5.10;2.30;;;23.30;45.70;;;;;;5056667;28;20192;-88
2022/05/16 11:14:19;;;;;;;5.45;1.95;;;23.40;43.60;;;;;;5039048;28;20178;-88
2022/05/16 11:16:45;;;;;;;3.35;1.83;;;23.50;43.40;;;;;;5057263;28;20156;-88
2022/05/16 11:19:21;;;;;;;5.35;2.05;;;23.30;45.10;;;;;;5039900;28;20270;-88
2022/05/16 11:21:58;;;;;;;5.95;2.30;;;23.50;45.90;;;;;;5058283;28;20704;-88
2022/05/16 11:24:38;;;;;;;6.50;1.75;;;23.70;45.40;;;;;;5039808;28;20225;-87
2022/05/16 11:27:16;;;;;;;9.98;2.17;;;23.50;43.90;;;;;;5056769;28;20174;-88
2022/05/16 11:30:09;;;;;;;7.35;2.40;;;23.60;42.10;;;;;;5056215;28;20263;-88
2022/05/16 11:32:54;;;;;;;7.63;1.95;;;23.70;43.10;;;;;;5058589;28;20172;-87
2022/05/16 11:35:20;;;;;;;7.85;2.00;;;23.80;41.40;;;;;;5056462;28;20179;-88
2022/05/16 11:38:23;;;;;;;4.35;1.70;;;23.90;41.30;;;;;;5056177;28;20180;-88
2022/05/16 11:41:07;;;;;;;7.63;2.45;;;24.20;41.50;;;;;;5018219;28;20294;-89
2022/05/16 11:43:43;;;;;;;6.70;2.25;;;24.10;42.60;;;;;;5040213;28;20187;-89
2022/05/16 11:46:31;;;;;;;9.23;2.25;;;24.10;42.10;;;;;;5061253;28;20180;-87
2022/05/16 11:49:11;;;;;;;6.47;1.95;;;24.20;42.90;;;;;;5057233;28;20153;-87
2022/05/16 11:52:05;;;;;;;4.78;2.40;;;24.20;42.30;;;;;;5061011;28;20553;-87
2022/05/16 11:54:39;;;;;;;10.65;2.22;;;24.30;41.70;;;;;;5060624;28;20670;-88
2022/05/16 12:03:12;;;;;;;7.35;2.08;;;24.70;41.00;;;;;;5066844;28;20159;-88
2022/05/16 12:05:44;;;;;;;9.60;2.47;;;24.80;40.30;;;;;;5068817;28;20274;-89
2022/05/16 12:08:15;;;;;;;8.10;2.30;;;25.00;40.70;;;;;;5068505;28;20638;-88
2022/05/16 12:11:25;;;;;;;9.32;2.00;;;24.90;40.50;;;;;;5049170;28;20200;-89
2022/05/16 12:14:10;;;;;;;3.92;1.95;;;25.00;40.40;;;;;;4985710;28;20192;-88
2022/05/16 12:17:10;;;;;;;4.07;2.03;;;24.80;39.90;;;;;;4986744;28;20174;-88
2022/05/16 12:19:38;;;;;;;12.40;2.55;;;24.70;39.00;;;;;;5028305;28;20184;-88
2022/05/16 12:22:13;;;;;;;7.57;2.42;;;24.70;41.30;;;;;;5063025;28;20226;-89
2022/05/16 12:24:41;;;;;;;7.07;2.80;;;24.70;42.20;;;;;;5047250;28;20203;-88
2022/05/16 12:27:10;;;;;;;5.07;1.92;;;24.50;42.50;;;;;;5041767;28;20214;-86
2022/05/16 12:29:46;;;;;;;6.10;1.95;;;24.30;41.10;;;;;;5057108;28;20168;-88
2022/05/16 12:32:30;;;;;;;8.35;2.40;;;24.20;40.50;;;;;;5057842;28;20156;-87
2022/05/16 12:35:01;;;;;;;4.55;1.92;;;24.40;42.00;;;;;;5057962;28;20271;-89
2022/05/16 12:37:27;;;;;;;11.07;2.15;;;24.50;41.40;;;;;;5058053;28;20172;-89
2022/05/16 12:40:17;;;;;;;4.57;2.03;;;24.40;42.10;;;;;;5058780;28;20173;-90
2022/05/16 12:43:00;;;;;;;6.88;2.08;;;24.50;42.90;;;;;;5038221;28;20180;-89
2022/05/16 12:45:52;;;;;;;5.53;2.03;;;24.70;41.70;;;;;;5055295;28;20195;-90
2022/05/16 12:48:44;;;;;;;6.97;2.10;;;24.70;41.50;;;;;;5055142;28;20160;-90
2022/05/16 12:51:28;;;;;;;5.70;2.35;;;24.70;41.00;;;;;;5036919;28;20211;-91
2022/05/16 12:54:27;;;;;;;6.97;2.35;;;24.80;43.30;;;;;;5054192;28;20218;-89
2022/05/16 12:56:55;;;;;;;8.20;2.33;;;24.80;40.40;;;;;;5037424;28;20638;-90
2022/05/16 12:59:51;;;;;;;5.03;2.60;;;24.90;39.50;;;;;;5037246;28;20190;-90
2022/05/16 13:02:29;;;;;;;2.95;1.70;;;24.90;40.20;;;;;;5053837;28;20271;-88
2022/05/16 13:05:07;;;;;;;5.32;1.70;;;25.10;40.20;;;;;;5038587;28;20250;-89
2022/05/16 13:08:08;;;;;;;3.80;1.85;;;25.00;39.80;;;;;;5055393;28;20172;-88
2022/05/16 13:10:39;;;;;;;4.78;1.95;;;25.00;41.30;;;;;;5038612;28;20568;-87
2022/05/16 13:13:17;;;;;;;8.07;2.30;;;24.90;40.70;;;;;;5053778;28;20588;-87
2022/05/16 13:16:07;;;;;;;4.50;2.28;;;24.70;40.50;;;;;;5053880;28;20179;-87
2022/05/16 13:18:40;;;;;;;9.23;2.50;;;24.40;41.30;;;;;;5056349;28;20195;-87
2022/05/16 13:21:15;;;;;;;5.53;2.05;;;23.90;42.00;;;;;;5037164;28;20193;-87
2022/05/16 13:23:42;;;;;;;5.25;2.20;;;23.80;42.30;;;;;;5053429;28;20175;-88
2022/05/16 13:31:44;;;;;;;5.47;2.33;;;24.20;44.20;;;;;;5054591;28;20688;-88
2022/05/16 13:34:26;;;;;;;7.88;2.30;;;24.20;44.10;;;;;;5036710;28;20179;-87
2022/05/16 13:36:51;;;;;;;11.57;2.38;;;24.30;44.90;;;;;;5036480;28;20171;-88
2022/05/16 13:39:18;;;;;;;7.78;2.22;;;24.40;45.30;;;;;;5036922;28;20176;-87
2022/05/16 13:41:54;;;;;;;7.22;2.13;;;24.40;41.70;;;;;;5054115;28;20252;-88
2022/05/16 13:44:19;;;;;;;5.15;2.17;;;24.20;42.60;;;;;;5037235;28;20699;-88
2022/05/16 13:46:45;;;;;;;9.20;2.15;;;24.20;44.10;;;;;;5036982;28;20175;-89
2022/05/16 13:49:13;;;;;;;7.97;3.25;;;24.20;43.60;;;;;;5036670;28;20295;-86